Time;durP1;ratioP1;P1;durP2;ratioP2;P2;SDS_P1;SDS_P2;PMS_P1;PMS_P2;Temp;Humidity;BMP_temperature;BMP_pressure;BME280_temperature;BME280_humidity;BME280_pressure;Samples;Min_cycle;Max_cycle;Signal;HPM_P1;HPM_P2
2023/10/28 00:00:47;;;;;;;7.40;3.75;;;10.60;75.00;;;;;;5089813;28;20028;-63
2023/10/28 00:03:13;;;;;;;7.15;4.13;;;10.70;75.10;;;;;;5089981;28;20390;-63
2023/10/28 00:05:39;;;;;;;7.45;3.72;;;10.70;75.10;;;;;;5089385;28;20086;-63
2023/10/28 00:08:05;;;;;;;7.65;3.92;;;10.70;75.10;;;;;;5087548;28;20024;-62
2023/10/28 00:10:32;;;;;;;6.65;3.25;;;10.70;75.10;;;;;;5070209;28;20028;-61
2023/10/28 00:12:59;;;;;;;4.68;3.47;;;10.70;75.10;;;;;;5090441;28;20042;-62
2023/10/28 00:15:25;;;;;;;5.18;3.35;;;10.70;75.10;;;;;;5087624;28;20020;-64
2023/10/28 00:17:51;;;;;;;5.93;3.55;;;10.80;75.10;;;;;;5098406;28;20048;-62
2023/10/28 00:20:17;;;;;;;7.25;3.50;;;10.80;75.10;;;;;;5101673;28;20047;-62
2023/10/28 00:22:53;;;;;;;6.22;3.70;;;10.80;75.20;;;;;;5087496;28;20036;-64
2023/10/28 00:25:19;;;;;;;8.20;3.58;;;10.80;75.30;;;;;;5086755;28;20074;-63
2023/10/28 00:27:45;;;;;;;6.70;3.35;;;10.80;75.20;;;;;;5086430;28;20024;-63
2023/10/28 00:30:11;;;;;;;10.10;3.60;;;10.80;75.20;;;;;;5091057;28;20028;-62
2023/10/28 00:32:38;;;;;;;9.65;3.40;;;10.80;75.20;;;;;;5089328;28;20016;-62
2023/10/28 00:35:07;;;;;;;6.13;3.17;;;11.00;76.00;;;;;;5093731;28;20127;-62
2023/10/28 00:37:34;;;;;;;8.20;3.33;;;10.90;75.50;;;;;;5086535;28;20374;-62
2023/10/28 00:40:00;;;;;;;6.90;3.15;;;10.90;75.30;;;;;;5086650;28;20040;-63
2023/10/28 00:42:25;;;;;;;8.13;3.10;;;10.90;75.30;;;;;;5073198;28;21720;-62
2023/10/28 00:44:54;;;;;;;3.63;2.42;;;10.90;75.20;;;;;;5090338;28;20069;-62
2023/10/28 00:47:22;;;;;;;4.35;2.22;;;10.90;75.50;;;;;;4996597;28;20351;-63
2023/10/28 00:49:48;;;;;;;3.47;1.83;;;11.00;75.70;;;;;;5093605;28;20038;-63
2023/10/28 00:52:14;;;;;;;3.95;1.70;;;11.00;75.60;;;;;;5088868;28;20102;-62
2023/10/28 00:54:39;;;;;;;4.80;1.30;;;11.00;75.60;;;;;;5067426;28;20020;-62
2023/10/28 00:57:05;;;;;;;2.60;1.30;;;11.00;75.60;;;;;;5089688;28;20031;-61
2023/10/28 00:59:31;;;;;;;3.03;1.27;;;11.00;75.70;;;;;;5092214;28;20024;-62
2023/10/28 01:01:57;;;;;;;1.45;1.05;;;11.10;75.90;;;;;;5091888;28;20028;-62
2023/10/28 01:04:22;;;;;;;0.90;0.80;;;11.10;76.00;;;;;;5081855;28;20028;-63
2023/10/28 01:06:48;;;;;;;1.50;0.90;;;11.10;75.80;;;;;;5087431;28;20028;-63
2023/10/28 01:09:14;;;;;;;1.25;1.00;;;11.10;76.10;;;;;;5087016;28;20111;-63
2023/10/28 01:11:40;;;;;;;1.58;0.90;;;11.20;76.00;;;;;;5088617;28;20500;-62
2023/10/28 01:14:06;;;;;;;1.38;0.77;;;11.20;76.00;;;;;;5091041;28;20040;-62
2023/10/28 01:16:33;;;;;;;1.25;0.90;;;11.20;75.80;;;;;;5095746;28;20020;-62
2023/10/28 01:18:59;;;;;;;1.05;0.98;;;11.20;75.80;;;;;;5096298;28;20020;-63
2023/10/28 01:21:26;;;;;;;1.98;0.90;;;11.30;75.80;;;;;;5090147;28;20029;-63
2023/10/28 01:23:54;;;;;;;1.90;0.85;;;11.30;76.20;;;;;;5094597;28;20044;-64
2023/10/28 01:26:20;;;;;;;0.68;0.68;;;11.30;75.50;;;;;;5095879;28;20048;-63
2023/10/28 01:28:46;;;;;;;3.10;0.80;;;11.30;75.40;;;;;;5091302;28;20093;-64
2023/10/28 01:31:11;;;;;;;0.60;0.60;;;11.40;75.40;;;;;;5095134;28;20071;-63
2023/10/28 01:33:37;;;;;;;1.40;0.82;;;11.40;75.40;;;;;;5088118;28;20027;-64
2023/10/28 01:36:03;;;;;;;1.48;0.60;;;11.40;75.30;;;;;;5092082;28;20099;-61
2023/10/28 01:38:29;;;;;;;2.28;0.80;;;11.50;75.30;;;;;;5094331;28;20028;-62
2023/10/28 01:40:56;;;;;;;0.65;0.60;;;11.50;75.30;;;;;;5092001;28;20551;-63
2023/10/28 01:43:22;;;;;;;0.60;0.60;;;11.50;75.20;;;;;;5091012;28;20055;-62
2023/10/28 01:45:51;;;;;;;0.80;0.60;;;11.50;74.90;;;;;;5022471;28;20510;-60
2023/10/28 01:48:17;;;;;;;0.73;0.50;;;11.50;74.90;;;;;;5105622;28;20031;-63
2023/10/28 01:50:43;;;;;;;1.17;0.60;;;11.50;74.90;;;;;;5094216;28;20024;-63
2023/10/28 01:53:08;;;;;;;1.02;0.65;;;11.60;74.80;;;;;;5076960;28;20016;-63
2023/10/28 01:55:34;;;;;;;1.98;0.65;;;11.60;74.70;;;;;;5101147;28;20108;-62
2023/10/28 01:58:00;;;;;;;0.68;0.68;;;11.60;74.70;;;;;;5095672;28;20035;-62
2023/10/28 02:00:30;;;;;;;0.68;0.68;;;11.60;74.60;;;;;;5094717;28;20070;-63
2023/10/28 02:03:00;;;;;;;2.03;0.57;;;11.60;74.50;;;;;;5087164;28;20047;-62
2023/10/28 02:05:26;;;;;;;3.25;0.85;;;11.60;74.40;;;;;;5092454;28;20024;-63
2023/10/28 02:07:52;;;;;;;1.00;0.70;;;11.60;74.40;;;;;;5094369;28;20039;-63
2023/10/28 02:10:17;;;;;;;0.88;0.65;;;11.60;74.30;;;;;;5094584;28;20032;-63
2023/10/28 02:12:43;;;;;;;3.10;0.60;;;11.60;74.40;;;;;;5089538;28;20375;-62
2023/10/28 02:15:09;;;;;;;1.67;0.70;;;11.60;74.40;;;;;;5090688;28;20084;-62
2023/10/28 02:17:36;;;;;;;1.52;0.65;;;11.60;74.30;;;;;;5083013;28;20029;-62
2023/10/28 02:20:06;;;;;;;2.00;1.08;;;11.60;74.40;;;;;;5095888;28;20032;-63
2023/10/28 02:22:32;;;;;;;2.13;0.70;;;11.60;74.30;;;;;;5097134;28;20508;-63
2023/10/28 02:24:58;;;;;;;0.75;0.75;;;11.60;74.20;;;;;;5094849;28;20044;-63
2023/10/28 02:27:24;;;;;;;1.90;0.80;;;11.60;74.20;;;;;;5092967;28;20095;-62
2023/10/28 02:29:49;;;;;;;1.95;0.75;;;11.60;74.20;;;;;;5093185;28;20332;-64
2023/10/28 02:32:15;;;;;;;1.48;0.80;;;11.60;74.10;;;;;;5085504;28;20036;-64
2023/10/28 02:34:41;;;;;;;3.80;0.98;;;11.60;74.00;;;;;;5089693;28;20059;-62
2023/10/28 02:37:07;;;;;;;1.70;1.02;;;11.70;74.00;;;;;;5089124;28;20024;-62
2023/10/28 02:39:33;;;;;;;1.48;1.00;;;11.60;74.00;;;;;;5086367;28;20095;-62
2023/10/28 02:42:02;;;;;;;2.25;0.90;;;11.70;74.00;;;;;;5098130;28;20058;-63
2023/10/28 02:44:31;;;;;;;2.10;1.00;;;11.60;73.90;;;;;;5096949;28;20123;-61
2023/10/28 02:46:58;;;;;;;2.33;0.85;;;11.60;73.90;;;;;;5017992;28;20111;-62
2023/10/28 02:49:24;;;;;;;1.55;0.70;;;11.60;73.80;;;;;;5077608;28;20051;-62
2023/10/28 02:51:49;;;;;;;1.63;0.70;;;11.60;73.80;;;;;;5091273;28;20434;-63
2023/10/28 02:54:15;;;;;;;1.25;0.80;;;11.60;73.90;;;;;;5093088;28;20047;-64
2023/10/28 02:56:40;;;;;;;2.55;0.70;;;11.60;73.70;;;;;;5092682;28;20082;-64
2023/10/28 02:59:07;;;;;;;1.80;0.65;;;11.60;73.70;;;;;;5090341;28;20118;-63
2023/10/28 03:01:36;;;;;;;0.60;0.60;;;11.60;73.70;;;;;;5083241;28;20375;-63
2023/10/28 03:04:03;;;;;;;1.10;0.80;;;11.60;73.70;;;;;;5093907;28;20036;-62
2023/10/28 03:06:29;;;;;;;2.28;1.00;;;11.60;73.70;;;;;;5086553;28;20364;-64
2023/10/28 03:08:54;;;;;;;4.32;0.70;;;11.60;73.70;;;;;;5086640;28;20027;-64
2023/10/28 03:11:20;;;;;;;1.17;0.73;;;11.60;73.70;;;;;;5100766;28;20039;-62
2023/10/28 03:13:46;;;;;;;1.52;0.65;;;11.60;73.70;;;;;;5107158;28;20529;-62
2023/10/28 03:16:12;;;;;;;1.13;0.68;;;11.60;73.60;;;;;;5089897;28;20028;-64
2023/10/28 03:18:38;;;;;;;1.27;0.80;;;11.60;73.60;;;;;;5091661;28;20263;-62
2023/10/28 03:21:06;;;;;;;1.35;0.70;;;11.60;73.50;;;;;;5086328;28;20378;-63
2023/10/28 03:23:32;;;;;;;3.65;0.90;;;11.50;73.50;;;;;;5091110;28;20541;-62
2023/10/28 03:25:58;;;;;;;2.47;0.90;;;11.50;73.50;;;;;;5094405;28;20042;-63
2023/10/28 03:28:23;;;;;;;3.85;0.88;;;11.60;73.70;;;;;;5091829;28;20028;-62
2023/10/28 03:30:49;;;;;;;2.08;0.75;;;11.60;73.70;;;;;;5088516;28;20024;-62
2023/10/28 03:33:15;;;;;;;3.92;0.93;;;11.60;73.60;;;;;;5086488;28;20101;-63
2023/10/28 03:35:41;;;;;;;2.95;0.80;;;11.60;73.60;;;;;;5092968;28;20084;-63
2023/10/28 03:38:07;;;;;;;2.28;0.90;;;11.60;73.50;;;;;;5091113;28;20027;-62
2023/10/28 03:40:33;;;;;;;2.00;0.90;;;11.60;73.50;;;;;;5088596;28;20028;-63
2023/10/28 03:42:58;;;;;;;3.45;1.00;;;11.60;73.40;;;;;;5095815;28;20046;-63
2023/10/28 03:45:24;;;;;;;1.95;0.85;;;11.60;73.30;;;;;;5092767;28;20027;-62
2023/10/28 03:47:50;;;;;;;5.97;1.00;;;11.60;73.30;;;;;;5089491;28;20051;-64
2023/10/28 03:50:16;;;;;;;2.83;1.00;;;11.60;73.30;;;;;;5091645;28;20019;-63
2023/10/28 03:52:41;;;;;;;2.38;1.00;;;11.60;73.30;;;;;;5086674;28;20486;-64
2023/10/28 03:55:07;;;;;;;2.15;0.80;;;11.60;73.30;;;;;;5095366;28;20024;-63
2023/10/28 03:57:33;;;;;;;2.95;1.27;;;11.60;73.30;;;;;;5097366;28;20092;-62
2023/10/28 03:59:59;;;;;;;1.95;1.10;;;11.60;73.30;;;;;;5069067;28;21079;-64
2023/10/28 04:02:25;;;;;;;1.50;0.82;;;11.60;73.30;;;;;;5089918;28;20029;-63
2023/10/28 04:04:52;;;;;;;3.10;1.33;;;11.60;73.30;;;;;;5086633;28;20040;-63
2023/10/28 04:07:17;;;;;;;2.58;1.00;;;11.60;73.20;;;;;;5084356;28;20020;-62
2023/10/28 04:09:43;;;;;;;4.13;1.27;;;11.60;73.20;;;;;;5091815;28;20484;-65
2023/10/28 04:12:09;;;;;;;2.85;1.10;;;11.60;73.10;;;;;;5075447;28;20037;-62
2023/10/28 04:14:35;;;;;;;3.83;1.00;;;11.60;73.10;;;;;;5090969;28;20550;-62
2023/10/28 04:17:03;;;;;;;4.03;1.23;;;11.60;73.00;;;;;;5088857;28;20037;-62
2023/10/28 04:19:29;;;;;;;5.40;1.13;;;11.60;73.00;;;;;;5084478;28;20119;-64
2023/10/28 04:21:55;;;;;;;4.68;1.25;;;11.60;72.90;;;;;;5091973;28;20031;-63
2023/10/28 04:24:22;;;;;;;6.25;1.30;;;11.60;72.90;;;;;;5096600;28;20023;-63
2023/10/28 04:26:47;;;;;;;2.42;1.23;;;11.60;72.90;;;;;;5089597;28;20478;-62
2023/10/28 04:29:13;;;;;;;3.28;1.35;;;11.60;72.90;;;;;;5092767;28;20036;-63
2023/10/28 04:31:39;;;;;;;6.68;1.95;;;11.60;72.90;;;;;;5083461;28;20556;-63
2023/10/28 04:34:05;;;;;;;7.00;1.98;;;11.60;72.80;;;;;;5085163;28;20038;-63
2023/10/28 04:36:31;;;;;;;5.18;1.80;;;11.50;72.80;;;;;;5080686;28;20020;-64
2023/10/28 04:38:57;;;;;;;5.57;1.80;;;11.50;72.90;;;;;;5093300;28;20034;-63
2023/10/28 04:41:22;;;;;;;4.53;1.75;;;11.60;73.00;;;;;;5091656;28;20055;-64
2023/10/28 04:43:48;;;;;;;3.70;1.40;;;11.60;73.00;;;;;;5093439;28;20119;-63
2023/10/28 04:46:15;;;;;;;3.80;1.23;;;11.60;73.00;;;;;;5093687;28;20026;-60
2023/10/28 04:48:46;;;;;;;4.72;1.10;;;11.60;73.00;;;;;;5073327;28;20051;-64
2023/10/28 04:51:12;;;;;;;3.42;1.10;;;11.60;72.90;;;;;;5095159;28;20490;-62
2023/10/28 04:53:38;;;;;;;2.78;1.10;;;11.50;72.70;;;;;;5094008;28;20024;-62
2023/10/28 04:56:08;;;;;;;5.32;1.42;;;11.50;72.70;;;;;;5091159;28;20024;-62
2023/10/28 04:58:34;;;;;;;3.55;1.20;;;11.50;72.70;;;;;;5097197;28;20036;-63
2023/10/28 05:00:59;;;;;;;3.20;1.17;;;11.50;72.80;;;;;;5101950;28;20020;-63
2023/10/28 05:03:25;;;;;;;4.90;1.33;;;11.50;72.70;;;;;;5098529;28;20138;-63
2023/10/28 05:05:51;;;;;;;2.15;1.13;;;11.50;72.70;;;;;;5092308;28;20075;-63
2023/10/28 05:08:16;;;;;;;7.45;1.85;;;11.40;72.70;;;;;;5098539;28;20128;-61
2023/10/28 05:10:42;;;;;;;4.93;1.30;;;11.40;72.60;;;;;;5075617;28;20039;-63
2023/10/28 05:13:10;;;;;;;2.95;1.33;;;11.40;72.70;;;;;;5093409;28;20524;-62
2023/10/28 05:15:36;;;;;;;5.07;1.70;;;11.40;72.60;;;;;;5094836;28;20423;-64
2023/10/28 05:18:02;;;;;;;3.40;1.63;;;11.30;72.60;;;;;;5077689;28;20486;-63
2023/10/28 05:20:28;;;;;;;5.45;2.13;;;11.40;72.60;;;;;;5094916;28;20481;-62
2023/10/28 05:22:53;;;;;;;9.35;2.15;;;11.30;72.60;;;;;;5096269;28;20073;-63
2023/10/28 05:25:19;;;;;;;3.67;1.52;;;11.30;72.70;;;;;;5093723;28;20055;-62
2023/10/28 05:27:45;;;;;;;8.45;1.40;;;11.20;72.60;;;;;;5099021;28;20082;-65
2023/10/28 05:30:11;;;;;;;2.22;1.30;;;11.20;72.70;;;;;;5091377;28;20427;-62
2023/10/28 05:32:39;;;;;;;2.13;1.10;;;11.10;73.40;;;;;;5091624;28;20028;-61
2023/10/28 05:35:08;;;;;;;3.78;1.33;;;11.10;72.80;;;;;;5091741;28;20043;-62
2023/10/28 05:37:34;;;;;;;3.97;1.30;;;11.10;72.90;;;;;;5100338;28;20389;-63
2023/10/28 05:39:59;;;;;;;6.32;1.45;;;11.10;72.90;;;;;;5096771;28;20098;-62
2023/10/28 05:42:25;;;;;;;7.15;1.50;;;11.10;73.00;;;;;;5098086;28;20032;-63
2023/10/28 05:44:51;;;;;;;4.63;1.58;;;11.00;73.00;;;;;;5096286;28;20043;-63
2023/10/28 05:47:16;;;;;;;3.35;1.83;;;11.00;73.10;;;;;;4999195;28;20028;-63
2023/10/28 05:49:42;;;;;;;5.97;2.40;;;11.00;73.20;;;;;;5097837;28;20028;-63
2023/10/28 05:52:09;;;;;;;6.05;2.17;;;11.00;73.30;;;;;;5098565;28;20073;-64
2023/10/28 05:54:35;;;;;;;5.30;2.00;;;11.00;73.30;;;;;;5097417;28;20035;-63
2023/10/28 05:57:00;;;;;;;2.65;1.65;;;10.90;73.30;;;;;;5096135;28;20020;-64
2023/10/28 05:59:26;;;;;;;4.78;1.90;;;10.90;73.30;;;;;;5094798;28;20040;-64
2023/10/28 06:01:52;;;;;;;5.07;1.92;;;10.90;73.40;;;;;;5087402;28;20082;-62
2023/10/28 06:04:21;;;;;;;4.07;1.83;;;10.90;73.30;;;;;;5090388;28;20032;-63
2023/10/28 06:06:47;;;;;;;5.05;2.67;;;10.90;73.40;;;;;;5093802;28;20028;-63
2023/10/28 06:09:13;;;;;;;5.35;2.58;;;10.90;73.30;;;;;;5092182;28;20089;-62
2023/10/28 06:11:40;;;;;;;4.60;2.70;;;10.90;73.30;;;;;;5092376;28;20020;-63
2023/10/28 06:14:05;;;;;;;5.38;3.22;;;10.80;73.20;;;;;;5090175;28;20058;-63
2023/10/28 06:16:31;;;;;;;7.38;3.08;;;10.80;73.30;;;;;;5095949;28;20024;-66
2023/10/28 06:18:57;;;;;;;5.30;2.78;;;10.90;73.40;;;;;;5072459;28;20017;-65
2023/10/28 06:21:23;;;;;;;6.20;2.17;;;10.80;73.40;;;;;;5087341;28;20587;-65
2023/10/28 06:23:48;;;;;;;2.63;1.88;;;10.80;73.50;;;;;;5085201;28;20051;-65
2023/10/28 06:26:14;;;;;;;5.43;2.00;;;10.80;73.50;;;;;;5086884;28;20056;-65
2023/10/28 06:28:40;;;;;;;2.63;1.58;;;10.80;73.50;;;;;;5086518;28;20757;-65
2023/10/28 06:31:06;;;;;;;3.50;1.50;;;10.80;73.50;;;;;;5106191;28;20047;-65
2023/10/28 06:33:32;;;;;;;8.18;2.15;;;10.80;73.50;;;;;;5076941;28;20024;-65
2023/10/28 06:35:58;;;;;;;6.10;2.80;;;10.80;73.50;;;;;;5086986;28;20024;-65
2023/10/28 06:38:27;;;;;;;5.38;2.30;;;10.80;73.50;;;;;;5093882;28;20085;-65
2023/10/28 06:40:53;;;;;;;6.78;2.00;;;10.80;73.60;;;;;;5089123;28;20426;-65
2023/10/28 06:43:19;;;;;;;4.53;1.60;;;10.80;73.60;;;;;;5086561;28;20071;-66
2023/10/28 06:45:44;;;;;;;2.97;1.00;;;10.80;73.60;;;;;;5091681;28;20027;-64
2023/10/28 06:48:10;;;;;;;5.57;1.50;;;10.80;73.60;;;;;;5075210;28;20016;-64
2023/10/28 06:50:36;;;;;;;4.82;1.17;;;10.90;73.70;;;;;;5091471;28;20035;-65
2023/10/28 06:53:02;;;;;;;5.97;1.85;;;10.90;73.70;;;;;;5090495;28;20032;-64
2023/10/28 06:55:28;;;;;;;2.85;1.35;;;10.90;73.80;;;;;;5091115;28;20020;-65
2023/10/28 06:57:55;;;;;;;3.42;1.48;;;10.90;74.00;;;;;;5088220;28;20050;-65
2023/10/28 07:00:26;;;;;;;3.42;1.42;;;11.00;74.20;;;;;;5070661;28;20039;-65
2023/10/28 07:02:53;;;;;;;3.80;1.80;;;11.00;74.20;;;;;;5082686;28;20051;-65
2023/10/28 07:05:19;;;;;;;3.85;1.45;;;11.10;74.40;;;;;;5090229;28;20431;-65
2023/10/28 07:07:45;;;;;;;5.10;1.20;;;11.20;74.50;;;;;;5091458;28;20384;-65
2023/10/28 07:10:14;;;;;;;2.15;1.10;;;11.30;74.50;;;;;;5091219;28;20031;-66
2023/10/28 07:12:43;;;;;;;2.08;1.00;;;11.40;74.40;;;;;;5086065;28;20042;-66
2023/10/28 07:15:12;;;;;;;5.32;1.30;;;11.50;74.20;;;;;;5071183;28;20043;-65
2023/10/28 07:17:39;;;;;;;3.97;1.17;;;11.60;74.10;;;;;;5089850;28;20047;-65
2023/10/28 07:20:06;;;;;;;2.50;1.17;;;11.70;73.90;;;;;;5089985;28;20027;-65
2023/10/28 07:22:34;;;;;;;2.25;1.00;;;11.80;73.80;;;;;;5090287;28;20470;-66
2023/10/28 07:25:00;;;;;;;3.35;1.10;;;11.90;73.60;;;;;;5086408;28;20036;-66
2023/10/28 07:27:26;;;;;;;2.05;0.98;;;11.90;73.40;;;;;;5071410;28;20031;-67
2023/10/28 07:29:52;;;;;;;3.25;1.50;;;12.00;73.30;;;;;;5089214;28;20047;-65
2023/10/28 07:32:18;;;;;;;1.90;1.00;;;12.00;73.50;;;;;;5073828;28;20654;-66
2023/10/28 07:34:44;;;;;;;2.63;1.05;;;12.10;73.50;;;;;;5085103;28;20051;-66
2023/10/28 07:37:10;;;;;;;3.80;1.20;;;12.20;73.80;;;;;;5090393;28;20064;-65
2023/10/28 07:39:35;;;;;;;1.60;0.98;;;12.30;73.80;;;;;;5067257;28;20377;-65
2023/10/28 07:42:02;;;;;;;2.38;1.20;;;12.50;73.40;;;;;;5068166;28;20561;-66
2023/10/28 07:44:28;;;;;;;3.78;1.30;;;12.60;72.80;;;;;;5086110;28;20157;-65
2023/10/28 07:46:53;;;;;;;5.88;1.30;;;12.60;72.50;;;;;;4996926;28;20823;-64
2023/10/28 07:49:19;;;;;;;3.50;1.10;;;12.70;72.20;;;;;;5085784;28;20034;-65
2023/10/28 07:51:45;;;;;;;2.45;1.15;;;12.70;72.00;;;;;;5087427;28;20051;-65
2023/10/28 07:54:11;;;;;;;3.08;1.10;;;12.70;71.70;;;;;;5088896;28;20036;-65
2023/10/28 07:56:36;;;;;;;3.70;1.38;;;12.70;71.50;;;;;;5086388;28;20028;-65
2023/10/28 07:59:02;;;;;;;3.15;1.25;;;12.80;71.40;;;;;;5084837;28;20032;-64
2023/10/28 08:01:32;;;;;;;1.00;0.90;;;12.70;71.30;;;;;;5082175;28;20093;-65
2023/10/28 08:03:58;;;;;;;3.45;0.90;;;12.70;71.20;;;;;;5083679;28;20043;-66
2023/10/28 08:06:24;;;;;;;4.22;1.65;;;12.70;71.10;;;;;;5094698;28;20042;-65
2023/10/28 08:08:54;;;;;;;7.03;1.33;;;12.70;71.20;;;;;;5085568;28;20028;-65
2023/10/28 08:11:27;;;;;;;4.28;1.20;;;12.70;71.20;;;;;;5090145;28;20027;-64
2023/10/28 08:13:55;;;;;;;4.28;1.30;;;12.70;71.30;;;;;;5089822;28;20024;-64
2023/10/28 08:16:23;;;;;;;4.45;1.58;;;12.70;71.20;;;;;;5081932;28;20103;-65
2023/10/28 08:18:49;;;;;;;3.45;1.20;;;12.70;71.40;;;;;;5082156;28;20040;-65
2023/10/28 08:21:16;;;;;;;4.55;1.15;;;12.70;71.30;;;;;;5082981;28;20021;-63
2023/10/28 08:23:43;;;;;;;3.60;1.35;;;12.70;71.40;;;;;;5090377;28;20351;-66
2023/10/28 08:26:14;;;;;;;4.28;1.45;;;12.80;71.80;;;;;;5091243;28;20063;-66
2023/10/28 08:28:40;;;;;;;5.38;1.45;;;12.90;72.20;;;;;;5083910;28;20035;-65
2023/10/28 08:31:10;;;;;;;3.22;1.10;;;13.00;72.20;;;;;;5083994;28;20040;-65
2023/10/28 08:33:36;;;;;;;3.38;1.10;;;13.10;72.10;;;;;;5081311;28;20054;-66
2023/10/28 08:36:04;;;;;;;4.00;1.13;;;13.30;72.00;;;;;;5089501;28;21052;-66
2023/10/28 08:38:31;;;;;;;4.15;1.27;;;13.40;71.60;;;;;;5086956;28;20582;-65
2023/10/28 08:40:59;;;;;;;3.35;1.23;;;13.60;71.50;;;;;;5086628;28;20024;-65
2023/10/28 08:43:26;;;;;;;2.65;1.17;;;13.70;71.70;;;;;;5086169;28;20053;-66
2023/10/28 08:45:53;;;;;;;7.53;1.33;;;13.80;71.00;;;;;;5086113;28;20047;-64
2023/10/28 08:48:20;;;;;;;7.05;1.20;;;14.00;70.50;;;;;;5089175;28;20031;-66
2023/10/28 08:50:52;;;;;;;6.03;1.20;;;14.10;70.20;;;;;;5062771;28;20093;-65
2023/10/28 08:53:18;;;;;;;2.35;1.10;;;14.20;69.50;;;;;;5092180;28;20081;-65
2023/10/28 08:55:46;;;;;;;5.78;1.30;;;14.30;69.60;;;;;;5086906;28;20024;-66
2023/10/28 08:58:13;;;;;;;8.70;1.30;;;14.40;69.40;;;;;;5084728;28;20181;-63
2023/10/28 09:00:39;;;;;;;6.88;0.98;;;14.50;68.60;;;;;;5081605;28;20021;-66
2023/10/28 09:03:05;;;;;;;2.97;1.00;;;14.60;68.70;;;;;;5078248;28;20105;-64
2023/10/28 09:05:31;;;;;;;2.17;0.77;;;14.70;68.60;;;;;;5084113;28;20015;-64
2023/10/28 09:07:57;;;;;;;3.30;0.88;;;14.80;68.50;;;;;;5088273;28;20024;-64
2023/10/28 09:10:23;;;;;;;5.95;1.00;;;14.90;68.40;;;;;;5064029;28;20466;-66
2023/10/28 09:12:52;;;;;;;2.78;0.80;;;15.00;68.30;;;;;;5085230;28;20023;-65
2023/10/28 09:15:18;;;;;;;6.85;1.08;;;15.20;68.00;;;;;;5086382;28;20024;-65
2023/10/28 09:17:44;;;;;;;4.82;1.33;;;15.30;67.70;;;;;;5089301;28;20442;-65
2023/10/28 09:20:11;;;;;;;2.75;1.05;;;15.40;67.70;;;;;;5086340;28;20025;-65
2023/10/28 09:22:39;;;;;;;5.63;1.10;;;15.50;67.50;;;;;;5096569;28;20038;-65
2023/10/28 09:25:05;;;;;;;6.63;1.00;;;15.70;67.00;;;;;;5096371;28;20060;-64
2023/10/28 09:27:32;;;;;;;3.17;1.02;;;15.80;66.30;;;;;;5081234;28;20028;-64
2023/10/28 09:30:05;;;;;;;5.03;0.90;;;15.90;65.50;;;;;;5084440;28;20085;-62
2023/10/28 09:32:33;;;;;;;6.53;1.08;;;16.00;64.90;;;;;;5083654;28;20031;-66
2023/10/28 09:35:05;;;;;;;2.92;0.90;;;16.10;64.90;;;;;;5087748;28;20024;-65
2023/10/28 09:37:37;;;;;;;1.80;0.80;;;16.20;64.80;;;;;;5089993;28;20028;-63
2023/10/28 09:40:08;;;;;;;8.63;0.90;;;16.40;64.40;;;;;;5091448;28;20038;-65
2023/10/28 09:42:36;;;;;;;4.38;1.40;;;16.50;65.20;;;;;;5092390;28;20024;-65
2023/10/28 09:45:06;;;;;;;4.75;1.02;;;16.60;64.10;;;;;;4986658;28;20025;-60
2023/10/28 09:48:05;;;;;;;7.05;0.95;;;16.70;63.90;;;;;;5074497;28;20032;-64
2023/10/28 09:50:38;;;;;;;3.13;0.80;;;16.80;62.50;;;;;;5084973;28;20036;-65
2023/10/28 09:53:03;;;;;;;1.50;0.70;;;17.00;62.60;;;;;;5089059;28;20470;-67
2023/10/28 09:55:37;;;;;;;3.65;0.98;;;17.10;62.00;;;;;;5093327;28;20032;-64
2023/10/28 09:59:00;;;;;;;2.97;0.85;;;17.10;61.40;;;;;;5077181;28;20624;-66
2023/10/28 10:01:36;;;;;;;2.25;0.95;;;17.20;60.10;;;;;;5044654;28;20184;-63
2023/10/28 10:04:02;;;;;;;4.75;1.15;;;17.20;59.90;;;;;;5045097;28;20060;-64
2023/10/28 10:06:27;;;;;;;5.75;1.27;;;17.20;59.40;;;;;;5043423;28;20029;-65
2023/10/28 10:08:55;;;;;;;3.28;0.90;;;17.20;60.20;;;;;;5043211;28;20116;-66
2023/10/28 10:11:25;;;;;;;5.82;0.90;;;17.30;60.30;;;;;;5045348;28;20719;-66
2023/10/28 10:13:51;;;;;;;2.47;1.10;;;17.40;59.80;;;;;;5044604;28;20064;-64
2023/10/28 10:17:15;;;;;;;2.80;1.00;;;17.40;58.40;;;;;;5044446;28;20578;-65
2023/10/28 10:19:42;;;;;;;9.07;1.75;;;17.50;57.70;;;;;;4970373;28;20101;-65
2023/10/28 10:22:08;;;;;;;3.15;0.95;;;17.50;59.20;;;;;;4977878;28;20147;-66
2023/10/28 10:24:34;;;;;;;6.68;1.13;;;17.50;58.90;;;;;;4971342;28;20522;-64
2023/10/28 10:27:02;;;;;;;4.03;1.00;;;17.60;58.30;;;;;;4974258;28;20069;-65
2023/10/28 10:29:40;;;;;;;6.82;1.20;;;17.60;58.00;;;;;;4972540;28;20039;-66
2023/10/28 10:32:16;;;;;;;2.88;1.20;;;17.70;56.80;;;;;;4974456;28;20081;-65
2023/10/28 10:34:42;;;;;;;4.78;0.80;;;17.70;57.30;;;;;;4975924;28;20095;-66
2023/10/28 10:37:09;;;;;;;3.20;1.00;;;17.80;57.80;;;;;;4970830;28;20769;-66
2023/10/28 10:39:46;;;;;;;5.28;1.10;;;17.80;57.60;;;;;;4973988;28;20035;-65
2023/10/28 10:42:14;;;;;;;1.58;1.00;;;17.90;56.40;;;;;;4975930;28;20038;-65
2023/10/28 10:44:41;;;;;;;3.47;1.00;;;18.00;56.90;;;;;;4968989;28;20054;-63
2023/10/28 10:47:08;;;;;;;4.30;0.77;;;18.10;56.40;;;;;;4908593;28;20412;-65
2023/10/28 10:49:36;;;;;;;2.33;0.73;;;18.20;56.00;;;;;;4993578;28;20022;-65
2023/10/28 10:52:03;;;;;;;2.17;0.80;;;18.20;55.20;;;;;;5092174;28;20024;-66
2023/10/28 10:54:38;;;;;;;5.30;1.33;;;18.20;54.90;;;;;;5094272;28;20513;-66
2023/10/28 10:57:06;;;;;;;2.45;0.80;;;18.10;54.30;;;;;;5083915;28;21570;-67
2023/10/28 10:59:33;;;;;;;4.65;1.20;;;18.10;55.20;;;;;;5089649;28;20487;-66
2023/10/28 11:02:03;;;;;;;2.78;0.90;;;18.20;55.20;;;;;;5087992;28;20044;-65
2023/10/28 11:04:30;;;;;;;3.20;1.00;;;18.20;54.70;;;;;;5092018;28;20885;-65
2023/10/28 11:06:57;;;;;;;2.53;0.80;;;18.20;54.60;;;;;;5076846;28;20033;-67
2023/10/28 11:09:23;;;;;;;5.22;1.38;;;18.10;54.40;;;;;;5089826;28;20413;-66
2023/10/28 11:11:49;;;;;;;3.75;1.00;;;18.10;54.30;;;;;;5091488;28;20035;-66
2023/10/28 11:14:15;;;;;;;10.48;1.38;;;18.00;53.60;;;;;;5089282;28;20505;-66
2023/10/28 11:16:42;;;;;;;3.58;1.50;;;18.00;54.00;;;;;;5090132;28;20784;-66
2023/10/28 11:19:11;;;;;;;3.58;1.40;;;17.90;53.60;;;;;;5087135;28;20038;-67
2023/10/28 11:21:39;;;;;;;5.03;0.93;;;17.90;53.60;;;;;;5088424;28;20054;-67
2023/10/28 11:24:06;;;;;;;4.80;1.30;;;17.90;54.40;;;;;;5093188;28;20044;-65
2023/10/28 11:26:33;;;;;;;2.88;1.15;;;18.00;53.90;;;;;;5086136;28;20040;-65
2023/10/28 11:29:00;;;;;;;5.30;1.08;;;18.00;54.10;;;;;;5088178;28;20043;-66
2023/10/28 11:31:30;;;;;;;6.10;1.52;;;18.00;53.30;;;;;;5089038;28;20382;-66
2023/10/28 11:33:58;;;;;;;3.10;1.15;;;18.00;53.00;;;;;;5094324;28;20024;-66
2023/10/28 11:36:24;;;;;;;3.67;1.25;;;18.10;53.10;;;;;;5093209;28;20117;-66
2023/10/28 11:38:50;;;;;;;3.55;1.10;;;18.10;53.30;;;;;;5088075;28;20016;-67
2023/10/28 11:41:16;;;;;;;6.30;1.27;;;18.20;52.50;;;;;;5090686;28;20489;-64
2023/10/28 11:43:42;;;;;;;2.97;1.00;;;18.20;52.20;;;;;;5088236;28;20817;-67
2023/10/28 11:46:08;;;;;;;4.68;1.30;;;18.20;52.30;;;;;;5083452;28;20034;-67
2023/10/28 11:48:34;;;;;;;3.42;1.23;;;18.30;52.80;;;;;;5092298;28;20027;-66
2023/10/28 11:51:00;;;;;;;4.13;1.45;;;18.30;51.50;;;;;;5091261;28;20035;-66
2023/10/28 11:53:27;;;;;;;7.28;1.50;;;18.30;51.70;;;;;;5092216;28;20032;-66
2023/10/28 11:55:54;;;;;;;5.32;1.20;;;18.20;51.40;;;;;;5087029;28;20024;-65
2023/10/28 11:58:24;;;;;;;4.80;1.38;;;18.20;51.80;;;;;;5090298;28;20073;-66
2023/10/28 12:00:52;;;;;;;8.25;1.70;;;18.20;51.20;;;;;;5087128;28;20032;-66
2023/10/28 12:03:19;;;;;;;4.50;1.00;;;18.20;51.50;;;;;;5091137;28;20044;-66
2023/10/28 12:05:45;;;;;;;4.25;1.30;;;18.20;51.40;;;;;;5080085;28;20243;-65
2023/10/28 12:08:11;;;;;;;8.30;1.20;;;18.20;51.20;;;;;;5065827;28;20033;-66
2023/10/28 12:10:43;;;;;;;2.75;1.23;;;18.20;51.50;;;;;;5090713;28;20398;-66
2023/10/28 12:13:18;;;;;;;5.75;1.88;;;18.20;51.40;;;;;;5087160;28;20563;-66
2023/10/28 12:15:44;;;;;;;8.93;1.50;;;18.20;50.60;;;;;;5082604;28;20033;-65
2023/10/28 12:18:10;;;;;;;6.20;1.20;;;18.20;50.30;;;;;;5091300;28;20047;-67
2023/10/28 12:20:35;;;;;;;9.15;1.50;;;18.20;51.00;;;;;;5089281;28;20035;-66
2023/10/28 12:23:02;;;;;;;5.57;1.30;;;18.20;50.80;;;;;;5091428;28;20496;-66
2023/10/28 12:25:28;;;;;;;5.32;1.70;;;18.20;51.30;;;;;;5090787;28;20038;-66
2023/10/28 12:27:54;;;;;;;7.20;1.50;;;18.10;51.00;;;;;;5087138;28;20020;-66
2023/10/28 12:30:20;;;;;;;3.80;1.50;;;18.10;50.70;;;;;;5085406;28;20036;-66
2023/10/28 12:32:47;;;;;;;5.03;1.40;;;18.00;51.10;;;;;;5087685;28;20073;-66
2023/10/28 12:35:13;;;;;;;7.63;1.80;;;18.00;51.40;;;;;;5072812;28;20106;-66
2023/10/28 12:37:40;;;;;;;7.07;1.88;;;17.90;51.40;;;;;;5089071;28;20134;-65
2023/10/28 12:40:07;;;;;;;8.50;1.75;;;17.90;51.00;;;;;;5088105;28;20024;-65
2023/10/28 12:42:35;;;;;;;4.57;1.48;;;17.80;51.30;;;;;;5091822;28;20024;-64
2023/10/28 12:45:06;;;;;;;7.05;1.63;;;17.70;51.60;;;;;;5086914;28;20443;-67
2023/10/28 12:47:32;;;;;;;7.70;1.75;;;17.70;52.10;;;;;;5093732;28;20051;-65